sensor_id;sensor_type;location;lat;lon;timestamp;P1;durP1;ratioP1;P2;durP2;ratioP2
21733;SDS011;11029;47.820;10.534;2022-09-09T00:01:05;1.48;;;1.20;;
21733;SDS011;11029;47.820;10.534;2022-09-09T00:03:54;1.10;;;1.00;;
21733;SDS011;11029;47.820;10.534;2022-09-09T00:06:30;2.10;;;1.15;;
21733;SDS011;11029;47.820;10.534;2022-09-09T00:09:17;1.20;;;1.10;;
21733;SDS011;11029;47.820;10.534;2022-09-09T00:20:11;3.20;;;1.00;;
21733;SDS011;11029;47.820;10.534;2022-09-09T00:23:03;1.10;;;0.80;;
21733;SDS011;11029;47.820;10.534;2022-09-09T00:25:58;3.42;;;0.98;;
21733;SDS011;11029;47.820;10.534;2022-09-09T00:28:30;2.63;;;0.95;;
21733;SDS011;11029;47.820;10.534;2022-09-09T00:31:11;1.20;;;0.80;;
21733;SDS011;11029;47.820;10.534;2022-09-09T00:33:47;4.93;;;1.05;;
21733;SDS011;11029;47.820;10.534;2022-09-09T00:36:17;2.75;;;1.00;;
21733;SDS011;11029;47.820;10.534;2022-09-09T00:38:49;4.33;;;0.87;;
21733;SDS011;11029;47.820;10.534;2022-09-09T00:41:59;1.40;;;0.90;;
21733;SDS011;11029;47.820;10.534;2022-09-09T00:58:26;1.85;;;1.08;;
21733;SDS011;11029;47.820;10.534;2022-09-09T01:01:12;1.48;;;0.80;;
21733;SDS011;11029;47.820;10.534;2022-09-09T01:03:52;2.80;;;1.05;;
21733;SDS011;11029;47.820;10.534;2022-09-09T01:06:39;1.45;;;0.85;;
21733;SDS011;11029;47.820;10.534;2022-09-09T01:09:11;2.28;;;0.90;;
21733;SDS011;11029;47.820;10.534;2022-09-09T01:14:35;1.02;;;1.00;;
21733;SDS011;11029;47.820;10.534;2022-09-09T01:17:19;1.50;;;1.17;;
21733;SDS011;11029;47.820;10.534;2022-09-09T01:26:23;2.30;;;0.90;;
21733;SDS011;11029;47.820;10.534;2022-09-09T01:29:09;2.38;;;1.10;;
21733;SDS011;11029;47.820;10.534;2022-09-09T01:31:59;1.80;;;1.10;;
21733;SDS011;11029;47.820;10.534;2022-09-09T01:34:33;5.82;;;1.02;;
21733;SDS011;11029;47.820;10.534;2022-09-09T01:37:10;1.30;;;1.10;;
21733;SDS011;11029;47.820;10.534;2022-09-09T01:39:40;4.63;;;1.05;;
21733;SDS011;11029;47.820;10.534;2022-09-09T01:42:12;6.15;;;1.20;;
21733;SDS011;11029;47.820;10.534;2022-09-09T01:44:41;2.53;;;1.13;;
21733;SDS011;11029;47.820;10.534;2022-09-09T01:47:08;1.38;;;1.08;;
21733;SDS011;11029;47.820;10.534;2022-09-09T01:49:50;2.88;;;1.35;;
21733;SDS011;11029;47.820;10.534;2022-09-09T01:52:22;1.55;;;1.35;;
21733;SDS011;11029;47.820;10.534;2022-09-09T01:54:49;1.65;;;1.00;;
21733;SDS011;11029;47.820;10.534;2022-09-09T01:57:23;5.65;;;1.00;;
21733;SDS011;11029;47.820;10.534;2022-09-09T02:00:10;1.77;;;1.42;;
21733;SDS011;11029;47.820;10.534;2022-09-09T02:08:28;3.65;;;1.10;;
21733;SDS011;11029;47.820;10.534;2022-09-09T02:13:53;2.28;;;0.93;;
21733;SDS011;11029;47.820;10.534;2022-09-09T02:16:43;1.15;;;1.05;;
21733;SDS011;11029;47.820;10.534;2022-09-09T02:19:19;2.58;;;1.00;;
21733;SDS011;11029;47.820;10.534;2022-09-09T02:22:07;2.47;;;1.05;;
21733;SDS011;11029;47.820;10.534;2022-09-09T02:24:35;1.83;;;1.10;;
21733;SDS011;11029;47.820;10.534;2022-09-09T02:27:20;1.30;;;0.80;;
21733;SDS011;11029;47.820;10.534;2022-09-09T02:29:49;1.42;;;1.10;;
21733;SDS011;11029;47.820;10.534;2022-09-09T02:32:30;1.40;;;1.00;;
21733;SDS011;11029;47.820;10.534;2022-09-09T02:35:05;1.27;;;0.88;;
21733;SDS011;11029;47.820;10.534;2022-09-09T02:37:38;1.40;;;1.00;;
21733;SDS011;11029;47.820;10.534;2022-09-09T02:40:07;3.53;;;1.17;;
21733;SDS011;11029;47.820;10.534;2022-09-09T02:42:40;3.35;;;1.30;;
21733;SDS011;11029;47.820;10.534;2022-09-09T02:45:10;1.30;;;1.15;;
21733;SDS011;11029;47.820;10.534;2022-09-09T02:50:28;2.28;;;0.90;;
21733;SDS011;11029;47.820;10.534;2022-09-09T02:55:52;1.60;;;1.00;;
21733;SDS011;11029;47.820;10.534;2022-09-09T02:58:25;1.05;;;0.95;;
21733;SDS011;11029;47.820;10.534;2022-09-09T03:00:57;1.63;;;0.95;;
21733;SDS011;11029;47.820;10.534;2022-09-09T03:03:25;1.20;;;1.10;;
21733;SDS011;11029;47.820;10.534;2022-09-09T03:05:54;3.35;;;1.00;;
21733;SDS011;11029;47.820;10.534;2022-09-09T03:08:21;4.70;;;1.17;;
21733;SDS011;11029;47.820;10.534;2022-09-09T03:10:48;1.30;;;1.20;;
21733;SDS011;11029;47.820;10.534;2022-09-09T03:13:15;2.28;;;1.15;;
21733;SDS011;11029;47.820;10.534;2022-09-09T03:15:43;1.00;;;1.00;;
21733;SDS011;11029;47.820;10.534;2022-09-09T03:18:14;0.90;;;0.90;;
21733;SDS011;11029;47.820;10.534;2022-09-09T03:20:43;2.80;;;1.20;;
21733;SDS011;11029;47.820;10.534;2022-09-09T03:23:10;3.08;;;1.27;;
21733;SDS011;11029;47.820;10.534;2022-09-09T03:25:48;1.77;;;1.00;;
21733;SDS011;11029;47.820;10.534;2022-09-09T03:28:19;3.00;;;1.23;;
21733;SDS011;11029;47.820;10.534;2022-09-09T03:30:47;1.55;;;1.45;;
21733;SDS011;11029;47.820;10.534;2022-09-09T03:33:14;2.22;;;1.15;;
21733;SDS011;11029;47.820;10.534;2022-09-09T03:35:45;1.33;;;1.10;;
21733;SDS011;11029;47.820;10.534;2022-09-09T03:38:16;0.90;;;0.90;;
21733;SDS011;11029;47.820;10.534;2022-09-09T03:40:53;4.20;;;1.20;;
21733;SDS011;11029;47.820;10.534;2022-09-09T03:43:25;0.90;;;0.90;;
21733;SDS011;11029;47.820;10.534;2022-09-09T03:45:52;1.35;;;1.05;;
21733;SDS011;11029;47.820;10.534;2022-09-09T03:48:24;3.05;;;1.45;;
21733;SDS011;11029;47.820;10.534;2022-09-09T03:50:52;2.75;;;1.30;;
21733;SDS011;11029;47.820;10.534;2022-09-09T03:53:21;1.02;;;0.95;;
21733;SDS011;11029;47.820;10.534;2022-09-09T03:55:50;2.65;;;1.10;;
21733;SDS011;11029;47.820;10.534;2022-09-09T03:58:22;1.00;;;0.90;;
21733;SDS011;11029;47.820;10.534;2022-09-09T04:00:57;2.13;;;0.73;;
21733;SDS011;11029;47.820;10.534;2022-09-09T04:03:26;1.65;;;1.08;;
21733;SDS011;11029;47.820;10.534;2022-09-09T04:05:55;3.67;;;1.10;;
21733;SDS011;11029;47.820;10.534;2022-09-09T04:08:26;1.10;;;1.00;;
21733;SDS011;11029;47.820;10.534;2022-09-09T04:10:53;1.67;;;1.35;;
21733;SDS011;11029;47.820;10.534;2022-09-09T04:13:24;2.00;;;1.02;;
21733;SDS011;11029;47.820;10.534;2022-09-09T04:15:59;2.78;;;1.10;;
21733;SDS011;11029;47.820;10.534;2022-09-09T04:18:27;3.75;;;1.20;;
21733;SDS011;11029;47.820;10.534;2022-09-09T04:20:58;2.60;;;1.10;;
21733;SDS011;11029;47.820;10.534;2022-09-09T04:23:28;2.30;;;1.20;;
21733;SDS011;11029;47.820;10.534;2022-09-09T04:25:58;1.23;;;1.00;;
21733;SDS011;11029;47.820;10.534;2022-09-09T04:28:27;2.65;;;1.10;;
21733;SDS011;11029;47.820;10.534;2022-09-09T04:30:56;4.07;;;1.25;;
21733;SDS011;11029;47.820;10.534;2022-09-09T04:33:24;1.30;;;1.20;;
21733;SDS011;11029;47.820;10.534;2022-09-09T04:35:54;2.50;;;1.10;;
21733;SDS011;11029;47.820;10.534;2022-09-09T04:38:23;1.10;;;1.00;;
21733;SDS011;11029;47.820;10.534;2022-09-09T04:40:50;1.77;;;0.90;;
21733;SDS011;11029;47.820;10.534;2022-09-09T04:43:20;1.45;;;1.27;;
21733;SDS011;11029;47.820;10.534;2022-09-09T04:45:49;2.75;;;1.20;;
21733;SDS011;11029;47.820;10.534;2022-09-09T04:48:23;1.98;;;1.10;;
21733;SDS011;11029;47.820;10.534;2022-09-09T04:50:57;1.55;;;0.90;;
21733;SDS011;11029;47.820;10.534;2022-09-09T04:53:26;1.58;;;0.80;;
21733;SDS011;11029;47.820;10.534;2022-09-09T04:56:00;1.20;;;1.10;;
21733;SDS011;11029;47.820;10.534;2022-09-09T04:58:35;1.13;;;0.95;;
21733;SDS011;11029;47.820;10.534;2022-09-09T05:01:08;1.45;;;1.15;;
21733;SDS011;11029;47.820;10.534;2022-09-09T05:03:38;1.40;;;1.30;;
21733;SDS011;11029;47.820;10.534;2022-09-09T05:06:08;2.88;;;1.55;;
21733;SDS011;11029;47.820;10.534;2022-09-09T05:08:37;2.42;;;1.55;;
21733;SDS011;11029;47.820;10.534;2022-09-09T05:11:15;3.35;;;1.00;;
21733;SDS011;11029;47.820;10.534;2022-09-09T05:13:52;2.55;;;1.10;;
21733;SDS011;11029;47.820;10.534;2022-09-09T05:16:20;2.92;;;1.20;;
21733;SDS011;11029;47.820;10.534;2022-09-09T05:18:47;1.10;;;1.05;;
21733;SDS011;11029;47.820;10.534;2022-09-09T05:21:19;3.22;;;0.98;;
21733;SDS011;11029;47.820;10.534;2022-09-09T05:23:47;1.67;;;1.00;;
21733;SDS011;11029;47.820;10.534;2022-09-09T05:26:16;3.35;;;1.00;;
21733;SDS011;11029;47.820;10.534;2022-09-09T05:28:52;1.00;;;1.00;;
21733;SDS011;11029;47.820;10.534;2022-09-09T05:31:35;3.33;;;1.08;;
21733;SDS011;11029;47.820;10.534;2022-09-09T05:36:34;1.85;;;1.35;;
21733;SDS011;11029;47.820;10.534;2022-09-09T05:39:01;3.10;;;1.30;;
21733;SDS011;11029;47.820;10.534;2022-09-09T05:41:30;1.10;;;1.00;;
21733;SDS011;11029;47.820;10.534;2022-09-09T05:44:00;1.52;;;1.05;;
21733;SDS011;11029;47.820;10.534;2022-09-09T05:46:27;1.80;;;1.00;;
21733;SDS011;11029;47.820;10.534;2022-09-09T05:48:55;1.83;;;1.02;;
21733;SDS011;11029;47.820;10.534;2022-09-09T05:51:29;1.92;;;1.20;;
21733;SDS011;11029;47.820;10.534;2022-09-09T05:54:04;1.98;;;1.27;;
21733;SDS011;11029;47.820;10.534;2022-09-09T05:56:34;1.65;;;1.17;;
21733;SDS011;11029;47.820;10.534;2022-09-09T05:59:01;4.47;;;1.30;;
21733;SDS011;11029;47.820;10.534;2022-09-09T06:01:29;1.52;;;1.10;;
21733;SDS011;11029;47.820;10.534;2022-09-09T06:03:59;2.65;;;1.20;;
21733;SDS011;11029;47.820;10.534;2022-09-09T06:06:29;1.33;;;1.20;;
21733;SDS011;11029;47.820;10.534;2022-09-09T06:09:01;3.90;;;1.25;;
21733;SDS011;11029;47.820;10.534;2022-09-09T06:11:35;3.65;;;1.45;;
21733;SDS011;11029;47.820;10.534;2022-09-09T06:14:04;3.97;;;1.95;;
21733;SDS011;11029;47.820;10.534;2022-09-09T06:16:31;4.22;;;2.40;;
21733;SDS011;11029;47.820;10.534;2022-09-09T06:18:59;2.83;;;1.77;;
21733;SDS011;11029;47.820;10.534;2022-09-09T06:21:28;2.88;;;1.38;;
21733;SDS011;11029;47.820;10.534;2022-09-09T06:23:59;3.83;;;1.52;;
21733;SDS011;11029;47.820;10.534;2022-09-09T06:26:28;6.25;;;1.30;;
21733;SDS011;11029;47.820;10.534;2022-09-09T06:28:58;1.23;;;0.77;;
21733;SDS011;11029;47.820;10.534;2022-09-09T06:31:27;1.25;;;0.90;;
21733;SDS011;11029;47.820;10.534;2022-09-09T06:34:00;6.05;;;1.20;;
21733;SDS011;11029;47.820;10.534;2022-09-09T06:36:29;2.08;;;0.90;;
21733;SDS011;11029;47.820;10.534;2022-09-09T06:38:57;3.60;;;0.98;;
21733;SDS011;11029;47.820;10.534;2022-09-09T06:41:25;3.58;;;1.13;;
21733;SDS011;11029;47.820;10.534;2022-09-09T06:43:54;0.80;;;0.80;;
21733;SDS011;11029;47.820;10.534;2022-09-09T06:46:32;1.02;;;0.60;;
21733;SDS011;11029;47.820;10.534;2022-09-09T06:49:00;1.95;;;0.70;;
21733;SDS011;11029;47.820;10.534;2022-09-09T06:51:27;0.75;;;0.60;;
21733;SDS011;11029;47.820;10.534;2022-09-09T06:53:56;2.10;;;0.80;;
21733;SDS011;11029;47.820;10.534;2022-09-09T06:56:25;3.15;;;0.82;;
21733;SDS011;11029;47.820;10.534;2022-09-09T06:58:58;1.25;;;0.70;;
21733;SDS011;11029;47.820;10.534;2022-09-09T07:01:32;1.47;;;1.00;;
21733;SDS011;11029;47.820;10.534;2022-09-09T07:04:04;0.80;;;0.70;;
21733;SDS011;11029;47.820;10.534;2022-09-09T07:06:36;5.68;;;1.08;;
21733;SDS011;11029;47.820;10.534;2022-09-09T07:09:07;1.27;;;0.60;;
21733;SDS011;11029;47.820;10.534;2022-09-09T07:11:38;1.42;;;0.60;;
21733;SDS011;11029;47.820;10.534;2022-09-09T07:14:12;1.08;;;0.60;;
21733;SDS011;11029;47.820;10.534;2022-09-09T07:16:42;2.63;;;0.70;;
21733;SDS011;11029;47.820;10.534;2022-09-09T07:19:10;1.15;;;0.52;;
21733;SDS011;11029;47.820;10.534;2022-09-09T07:21:38;1.98;;;0.50;;
21733;SDS011;11029;47.820;10.534;2022-09-09T07:24:11;2.25;;;0.90;;
21733;SDS011;11029;47.820;10.534;2022-09-09T07:26:41;1.90;;;0.60;;
21733;SDS011;11029;47.820;10.534;2022-09-09T07:29:08;2.78;;;0.60;;
21733;SDS011;11029;47.820;10.534;2022-09-09T07:31:36;1.88;;;0.60;;
21733;SDS011;11029;47.820;10.534;2022-09-09T07:34:08;1.27;;;0.60;;
21733;SDS011;11029;47.820;10.534;2022-09-09T07:36:36;1.75;;;0.68;;
21733;SDS011;11029;47.820;10.534;2022-09-09T07:39:08;2.13;;;0.88;;
21733;SDS011;11029;47.820;10.534;2022-09-09T07:41:37;4.15;;;0.80;;
21733;SDS011;11029;47.820;10.534;2022-09-09T07:44:11;3.03;;;0.60;;
21733;SDS011;11029;47.820;10.534;2022-09-09T07:46:42;2.00;;;0.52;;
21733;SDS011;11029;47.820;10.534;2022-09-09T07:49:16;2.10;;;0.80;;
21733;SDS011;11029;47.820;10.534;2022-09-09T07:51:51;1.92;;;0.93;;
21733;SDS011;11029;47.820;10.534;2022-09-09T07:54:18;1.70;;;0.57;;
21733;SDS011;11029;47.820;10.534;2022-09-09T07:56:49;1.02;;;0.50;;
21733;SDS011;11029;47.820;10.534;2022-09-09T07:59:18;4.80;;;0.60;;
21733;SDS011;11029;47.820;10.534;2022-09-09T08:01:49;1.02;;;0.45;;
21733;SDS011;11029;47.820;10.534;2022-09-09T08:04:23;1.90;;;0.75;;
21733;SDS011;11029;47.820;10.534;2022-09-09T08:06:55;0.60;;;0.60;;
21733;SDS011;11029;47.820;10.534;2022-09-09T08:09:25;0.40;;;0.40;;
21733;SDS011;11029;47.820;10.534;2022-09-09T08:12:04;0.40;;;0.40;;
21733;SDS011;11029;47.820;10.534;2022-09-09T08:14:33;1.30;;;0.55;;
21733;SDS011;11029;47.820;10.534;2022-09-09T08:17:00;0.70;;;0.40;;
21733;SDS011;11029;47.820;10.534;2022-09-09T08:19:28;1.63;;;0.50;;
21733;SDS011;11029;47.820;10.534;2022-09-09T08:21:57;1.33;;;0.40;;
21733;SDS011;11029;47.820;10.534;2022-09-09T08:24:24;0.73;;;0.30;;
21733;SDS011;11029;47.820;10.534;2022-09-09T08:26:52;2.20;;;0.40;;
21733;SDS011;11029;47.820;10.534;2022-09-09T08:29:22;0.68;;;0.30;;
21733;SDS011;11029;47.820;10.534;2022-09-09T08:31:52;1.08;;;0.30;;
21733;SDS011;11029;47.820;10.534;2022-09-09T08:34:20;1.63;;;0.60;;
21733;SDS011;11029;47.820;10.534;2022-09-09T08:36:49;0.65;;;0.57;;
21733;SDS011;11029;47.820;10.534;2022-09-09T08:39:21;0.75;;;0.40;;
21733;SDS011;11029;47.820;10.534;2022-09-09T08:44:50;0.98;;;0.40;;
21733;SDS011;11029;47.820;10.534;2022-09-09T08:50:13;2.28;;;0.50;;
21733;SDS011;11029;47.820;10.534;2022-09-09T08:53:22;0.60;;;0.43;;
21733;SDS011;11029;47.820;10.534;2022-09-09T08:55:54;1.17;;;0.50;;
21733;SDS011;11029;47.820;10.534;2022-09-09T08:58:32;1.92;;;0.40;;
21733;SDS011;11029;47.820;10.534;2022-09-09T09:01:18;2.38;;;0.40;;
21733;SDS011;11029;47.820;10.534;2022-09-09T09:10:44;1.65;;;0.55;;
21733;SDS011;11029;47.820;10.534;2022-09-09T09:13:15;1.70;;;0.40;;
21733;SDS011;11029;47.820;10.534;2022-09-09T09:15:50;0.30;;;0.30;;
21733;SDS011;11029;47.820;10.534;2022-09-09T09:18:27;1.65;;;0.50;;
21733;SDS011;11029;47.820;10.534;2022-09-09T09:20:59;1.02;;;0.60;;
21733;SDS011;11029;47.820;10.534;2022-09-09T09:23:39;2.40;;;0.50;;
21733;SDS011;11029;47.820;10.534;2022-09-09T09:26:10;2.10;;;0.65;;
21733;SDS011;11029;47.820;10.534;2022-09-09T09:28:39;1.98;;;0.45;;
21733;SDS011;11029;47.820;10.534;2022-09-09T09:31:12;3.00;;;0.60;;
21733;SDS011;11029;47.820;10.534;2022-09-09T09:33:46;3.88;;;0.70;;
21733;SDS011;11029;47.820;10.534;2022-09-09T09:36:17;0.98;;;0.63;;
21733;SDS011;11029;47.820;10.534;2022-09-09T09:38:53;3.70;;;0.45;;
21733;SDS011;11029;47.820;10.534;2022-09-09T09:41:46;2.22;;;0.50;;
21733;SDS011;11029;47.820;10.534;2022-09-09T09:44:22;2.95;;;0.68;;
21733;SDS011;11029;47.820;10.534;2022-09-09T09:47:07;0.95;;;0.68;;
21733;SDS011;11029;47.820;10.534;2022-09-09T09:49:56;1.50;;;0.63;;
21733;SDS011;11029;47.820;10.534;2022-09-09T09:52:33;3.42;;;0.73;;
21733;SDS011;11029;47.820;10.534;2022-09-09T09:55:03;3.42;;;0.70;;
21733;SDS011;11029;47.820;10.534;2022-09-09T09:57:38;1.60;;;0.50;;
21733;SDS011;11029;47.820;10.534;2022-09-09T10:00:18;1.85;;;0.80;;
21733;SDS011;11029;47.820;10.534;2022-09-09T10:02:55;2.38;;;0.82;;
21733;SDS011;11029;47.820;10.534;2022-09-09T10:05:26;1.98;;;0.80;;
21733;SDS011;11029;47.820;10.534;2022-09-09T10:10:50;3.10;;;1.05;;
21733;SDS011;11029;47.820;10.534;2022-09-09T10:13:36;1.85;;;0.80;;
21733;SDS011;11029;47.820;10.534;2022-09-09T10:19:20;2.72;;;0.70;;
21733;SDS011;11029;47.820;10.534;2022-09-09T10:22:02;1.58;;;0.70;;
21733;SDS011;11029;47.820;10.534;2022-09-09T10:30:47;1.45;;;0.60;;
21733;SDS011;11029;47.820;10.534;2022-09-09T10:36:13;2.60;;;1.08;;
21733;SDS011;11029;47.820;10.534;2022-09-09T10:38:46;2.83;;;0.82;;
21733;SDS011;11029;47.820;10.534;2022-09-09T10:41:42;1.30;;;0.70;;
21733;SDS011;11029;47.820;10.534;2022-09-09T10:55:39;1.52;;;0.80;;
21733;SDS011;11029;47.820;10.534;2022-09-09T10:58:10;2.42;;;0.60;;
21733;SDS011;11029;47.820;10.534;2022-09-09T11:00:45;1.60;;;0.90;;
21733;SDS011;11029;47.820;10.534;2022-09-09T11:03:21;1.00;;;0.60;;
21733;SDS011;11029;47.820;10.534;2022-09-09T11:05:57;3.40;;;0.73;;
21733;SDS011;11029;47.820;10.534;2022-09-09T11:08:26;1.27;;;0.65;;
21733;SDS011;11029;47.820;10.534;2022-09-09T11:13:31;2.97;;;0.57;;
21733;SDS011;11029;47.820;10.534;2022-09-09T11:18:53;3.25;;;0.80;;
21733;SDS011;11029;47.820;10.534;2022-09-09T11:21:32;3.50;;;0.65;;
21733;SDS011;11029;47.820;10.534;2022-09-09T11:24:04;1.17;;;0.70;;
21733;SDS011;11029;47.820;10.534;2022-09-09T11:27:00;3.88;;;0.70;;
21733;SDS011;11029;47.820;10.534;2022-09-09T11:32:19;1.67;;;0.95;;
21733;SDS011;11029;47.820;10.534;2022-09-09T11:35:02;3.97;;;0.80;;
21733;SDS011;11029;47.820;10.534;2022-09-09T11:38:00;4.20;;;0.73;;
21733;SDS011;11029;47.820;10.534;2022-09-09T11:40:37;2.15;;;0.70;;
21733;SDS011;11029;47.820;10.534;2022-09-09T11:43:08;4.93;;;0.98;;
21733;SDS011;11029;47.820;10.534;2022-09-09T11:45:54;2.00;;;0.65;;
21733;SDS011;11029;47.820;10.534;2022-09-09T11:48:37;3.40;;;1.05;;
21733;SDS011;11029;47.820;10.534;2022-09-09T11:54:31;4.80;;;1.17;;
21733;SDS011;11029;47.820;10.534;2022-09-09T11:56:55;2.65;;;0.73;;
21733;SDS011;11029;47.820;10.534;2022-09-09T11:59:26;3.50;;;0.80;;
21733;SDS011;11029;47.820;10.534;2022-09-09T12:02:12;1.65;;;0.88;;
21733;SDS011;11029;47.820;10.534;2022-09-09T12:04:55;2.88;;;0.80;;
21733;SDS011;11029;47.820;10.534;2022-09-09T12:07:41;3.00;;;1.02;;
21733;SDS011;11029;47.820;10.534;2022-09-09T12:13:18;2.40;;;0.65;;
21733;SDS011;11029;47.820;10.534;2022-09-09T12:15:47;1.30;;;0.80;;
21733;SDS011;11029;47.820;10.534;2022-09-09T12:18:21;3.53;;;0.60;;
21733;SDS011;11029;47.820;10.534;2022-09-09T12:20:54;1.83;;;0.55;;
21733;SDS011;11029;47.820;10.534;2022-09-09T12:23:52;1.83;;;0.73;;
21733;SDS011;11029;47.820;10.534;2022-09-09T12:26:29;2.05;;;0.50;;
21733;SDS011;11029;47.820;10.534;2022-09-09T12:31:54;3.53;;;0.52;;
21733;SDS011;11029;47.820;10.534;2022-09-09T12:37:02;2.05;;;0.50;;
21733;SDS011;11029;47.820;10.534;2022-09-09T12:39:49;4.28;;;0.60;;
21733;SDS011;11029;47.820;10.534;2022-09-09T12:42:21;4.35;;;0.70;;
21733;SDS011;11029;47.820;10.534;2022-09-09T12:47:28;2.30;;;0.55;;
21733;SDS011;11029;47.820;10.534;2022-09-09T12:50:25;1.73;;;0.50;;
21733;SDS011;11029;47.820;10.534;2022-09-09T12:53:01;2.00;;;0.50;;
21733;SDS011;11029;47.820;10.534;2022-09-09T12:55:36;2.35;;;0.70;;
21733;SDS011;11029;47.820;10.534;2022-09-09T12:58:05;1.35;;;0.60;;
21733;SDS011;11029;47.820;10.534;2022-09-09T13:00:33;2.10;;;0.70;;
21733;SDS011;11029;47.820;10.534;2022-09-09T13:03:13;3.35;;;0.68;;
21733;SDS011;11029;47.820;10.534;2022-09-09T13:08:13;2.97;;;0.63;;
21733;SDS011;11029;47.820;10.534;2022-09-09T13:10:54;1.95;;;0.70;;
21733;SDS011;11029;47.820;10.534;2022-09-09T13:13:33;2.35;;;0.50;;
21733;SDS011;11029;47.820;10.534;2022-09-09T13:16:02;2.08;;;0.75;;
21733;SDS011;11029;47.820;10.534;2022-09-09T13:18:36;3.50;;;0.63;;
21733;SDS011;11029;47.820;10.534;2022-09-09T13:21:06;1.77;;;0.65;;
21733;SDS011;11029;47.820;10.534;2022-09-09T13:23:34;3.50;;;0.77;;
21733;SDS011;11029;47.820;10.534;2022-09-09T13:28:32;2.20;;;0.50;;
21733;SDS011;11029;47.820;10.534;2022-09-09T13:31:02;1.80;;;0.55;;
21733;SDS011;11029;47.820;10.534;2022-09-09T13:33:35;2.45;;;0.70;;
21733;SDS011;11029;47.820;10.534;2022-09-09T13:36:08;1.70;;;0.65;;
21733;SDS011;11029;47.820;10.534;2022-09-09T13:38:37;6.15;;;0.90;;
21733;SDS011;11029;47.820;10.534;2022-09-09T13:41:07;1.27;;;0.40;;
21733;SDS011;11029;47.820;10.534;2022-09-09T13:43:43;3.00;;;0.50;;
21733;SDS011;11029;47.820;10.534;2022-09-09T13:54:06;3.05;;;0.57;;
21733;SDS011;11029;47.820;10.534;2022-09-09T13:56:36;0.93;;;0.65;;
21733;SDS011;11029;47.820;10.534;2022-09-09T13:59:05;1.20;;;0.60;;
21733;SDS011;11029;47.820;10.534;2022-09-09T14:01:35;0.75;;;0.40;;
21733;SDS011;11029;47.820;10.534;2022-09-09T14:04:03;3.30;;;0.50;;
21733;SDS011;11029;47.820;10.534;2022-09-09T14:06:32;1.35;;;0.77;;
21733;SDS011;11029;47.820;10.534;2022-09-09T14:09:03;4.80;;;0.60;;
21733;SDS011;11029;47.820;10.534;2022-09-09T14:11:31;4.35;;;0.77;;
21733;SDS011;11029;47.820;10.534;2022-09-09T14:13:57;2.00;;;0.60;;
21733;SDS011;11029;47.820;10.534;2022-09-09T14:16:24;2.15;;;0.77;;
21733;SDS011;11029;47.820;10.534;2022-09-09T14:18:53;1.45;;;0.73;;
21733;SDS011;11029;47.820;10.534;2022-09-09T14:21:23;2.13;;;0.40;;
21733;SDS011;11029;47.820;10.534;2022-09-09T14:23:50;1.38;;;0.60;;
21733;SDS011;11029;47.820;10.534;2022-09-09T14:26:19;0.88;;;0.60;;
21733;SDS011;11029;47.820;10.534;2022-09-09T14:28:47;1.73;;;0.50;;
21733;SDS011;11029;47.820;10.534;2022-09-09T14:31:21;0.60;;;0.40;;
21733;SDS011;11029;47.820;10.534;2022-09-09T14:33:48;0.50;;;0.40;;
21733;SDS011;11029;47.820;10.534;2022-09-09T14:36:16;1.00;;;0.57;;
21733;SDS011;11029;47.820;10.534;2022-09-09T14:38:43;1.08;;;0.60;;
21733;SDS011;11029;47.820;10.534;2022-09-09T14:41:11;1.50;;;0.60;;
21733;SDS011;11029;47.820;10.534;2022-09-09T14:43:39;2.05;;;0.30;;
21733;SDS011;11029;47.820;10.534;2022-09-09T14:46:10;3.03;;;0.47;;
21733;SDS011;11029;47.820;10.534;2022-09-09T14:48:38;1.27;;;0.57;;
21733;SDS011;11029;47.820;10.534;2022-09-09T14:51:28;0.73;;;0.50;;
21733;SDS011;11029;47.820;10.534;2022-09-09T14:53:57;0.85;;;0.30;;
21733;SDS011;11029;47.820;10.534;2022-09-09T14:56:27;1.58;;;0.57;;
21733;SDS011;11029;47.820;10.534;2022-09-09T14:58:56;2.45;;;0.30;;
21733;SDS011;11029;47.820;10.534;2022-09-09T15:01:24;1.33;;;0.50;;
21733;SDS011;11029;47.820;10.534;2022-09-09T15:03:57;1.58;;;0.50;;
21733;SDS011;11029;47.820;10.534;2022-09-09T15:06:29;0.73;;;0.40;;
21733;SDS011;11029;47.820;10.534;2022-09-09T15:08:59;1.27;;;0.60;;
21733;SDS011;11029;47.820;10.534;2022-09-09T15:11:27;2.05;;;0.57;;
21733;SDS011;11029;47.820;10.534;2022-09-09T15:13:56;3.28;;;0.50;;
21733;SDS011;11029;47.820;10.534;2022-09-09T15:16:25;1.73;;;0.40;;
21733;SDS011;11029;47.820;10.534;2022-09-09T15:18:54;3.58;;;0.40;;
21733;SDS011;11029;47.820;10.534;2022-09-09T15:21:23;0.57;;;0.50;;
21733;SDS011;11029;47.820;10.534;2022-09-09T15:23:52;1.30;;;0.40;;
21733;SDS011;11029;47.820;10.534;2022-09-09T15:26:19;0.75;;;0.40;;
21733;SDS011;11029;47.820;10.534;2022-09-09T15:28:47;0.95;;;0.30;;
21733;SDS011;11029;47.820;10.534;2022-09-09T15:33:50;1.40;;;0.52;;
21733;SDS011;11029;47.820;10.534;2022-09-09T15:38:54;2.30;;;0.60;;
21733;SDS011;11029;47.820;10.534;2022-09-09T15:41:22;1.77;;;0.60;;
21733;SDS011;11029;47.820;10.534;2022-09-09T15:43:50;1.70;;;0.50;;
21733;SDS011;11029;47.820;10.534;2022-09-09T15:49:06;2.53;;;0.70;;
21733;SDS011;11029;47.820;10.534;2022-09-09T15:51:41;1.50;;;0.60;;
21733;SDS011;11029;47.820;10.534;2022-09-09T15:54:11;1.10;;;0.50;;
21733;SDS011;11029;47.820;10.534;2022-09-09T15:56:39;1.50;;;0.80;;
21733;SDS011;11029;47.820;10.534;2022-09-09T15:59:06;1.52;;;0.40;;
21733;SDS011;11029;47.820;10.534;2022-09-09T16:01:33;1.95;;;0.57;;
21733;SDS011;11029;47.820;10.534;2022-09-09T16:04:01;2.13;;;0.60;;
21733;SDS011;11029;47.820;10.534;2022-09-09T16:06:29;2.08;;;0.52;;
21733;SDS011;11029;47.820;10.534;2022-09-09T16:08:56;2.53;;;0.73;;
21733;SDS011;11029;47.820;10.534;2022-09-09T16:11:31;2.42;;;0.70;;
21733;SDS011;11029;47.820;10.534;2022-09-09T16:14:01;0.95;;;0.50;;
21733;SDS011;11029;47.820;10.534;2022-09-09T16:16:30;1.05;;;0.50;;
21733;SDS011;11029;47.820;10.534;2022-09-09T16:18:59;1.25;;;0.50;;
21733;SDS011;11029;47.820;10.534;2022-09-09T16:21:35;0.80;;;0.50;;
21733;SDS011;11029;47.820;10.534;2022-09-09T16:24:04;2.70;;;0.52;;
21733;SDS011;11029;47.820;10.534;2022-09-09T16:26:34;4.55;;;0.60;;
21733;SDS011;11029;47.820;10.534;2022-09-09T16:29:02;1.95;;;0.43;;
21733;SDS011;11029;47.820;10.534;2022-09-09T16:31:29;1.75;;;0.60;;
21733;SDS011;11029;47.820;10.534;2022-09-09T16:34:00;1.25;;;0.43;;
21733;SDS011;11029;47.820;10.534;2022-09-09T16:36:27;1.33;;;0.60;;
21733;SDS011;11029;47.820;10.534;2022-09-09T16:39:00;3.00;;;0.70;;
21733;SDS011;11029;47.820;10.534;2022-09-09T16:41:29;0.77;;;0.50;;
21733;SDS011;11029;47.820;10.534;2022-09-09T16:43:57;0.43;;;0.43;;
21733;SDS011;11029;47.820;10.534;2022-09-09T16:46:26;1.80;;;0.40;;
21733;SDS011;11029;47.820;10.534;2022-09-09T16:48:55;0.65;;;0.35;;
21733;SDS011;11029;47.820;10.534;2022-09-09T16:51:27;1.10;;;0.57;;
21733;SDS011;11029;47.820;10.534;2022-09-09T16:53:55;0.57;;;0.50;;
21733;SDS011;11029;47.820;10.534;2022-09-09T16:56:24;1.70;;;0.50;;
21733;SDS011;11029;47.820;10.534;2022-09-09T16:58:53;0.60;;;0.60;;
21733;SDS011;11029;47.820;10.534;2022-09-09T17:01:26;3.67;;;0.40;;
21733;SDS011;11029;47.820;10.534;2022-09-09T17:06:26;2.03;;;0.50;;
21733;SDS011;11029;47.820;10.534;2022-09-09T17:08:55;1.25;;;0.50;;
21733;SDS011;11029;47.820;10.534;2022-09-09T17:11:23;2.95;;;0.45;;
21733;SDS011;11029;47.820;10.534;2022-09-09T17:13:50;1.40;;;0.50;;
21733;SDS011;11029;47.820;10.534;2022-09-09T17:16:21;1.02;;;0.40;;
21733;SDS011;11029;47.820;10.534;2022-09-09T17:18:49;1.80;;;0.45;;